sensor_id;sensor_type;location;lat;lon;timestamp;pressure;altitude;pressure_sealevel;temperature
12918;BMP180;6526;54.312;13.092;2023-07-29T00:00:57;101116.00;;;20.50
12918;BMP180;6526;54.312;13.092;2023-07-29T00:03:23;101113.00;;;20.60
12918;BMP180;6526;54.312;13.092;2023-07-29T00:05:50;101105.00;;;20.60
12918;BMP180;6526;54.312;13.092;2023-07-29T00:08:16;101119.00;;;20.50
12918;BMP180;6526;54.312;13.092;2023-07-29T00:10:42;101119.00;;;20.60
12918;BMP180;6526;54.312;13.092;2023-07-29T00:13:08;101120.00;;;20.50
12918;BMP180;6526;54.312;13.092;2023-07-29T00:15:34;101125.00;;;20.40
12918;BMP180;6526;54.312;13.092;2023-07-29T00:18:00;101119.00;;;20.50
12918;BMP180;6526;54.312;13.092;2023-07-29T00:20:26;101127.00;;;20.50
12918;BMP180;6526;54.312;13.092;2023-07-29T00:22:52;101122.00;;;20.60
12918;BMP180;6526;54.312;13.092;2023-07-29T00:25:22;101119.00;;;20.60
12918;BMP180;6526;54.312;13.092;2023-07-29T00:27:48;101126.00;;;20.60
12918;BMP180;6526;54.312;13.092;2023-07-29T00:30:14;101122.00;;;20.60
12918;BMP180;6526;54.312;13.092;2023-07-29T00:32:40;101127.00;;;20.60
12918;BMP180;6526;54.312;13.092;2023-07-29T00:35:07;101130.00;;;20.70
12918;BMP180;6526;54.312;13.092;2023-07-29T00:37:33;101133.00;;;20.70
12918;BMP180;6526;54.312;13.092;2023-07-29T00:39:59;101129.00;;;20.70
12918;BMP180;6526;54.312;13.092;2023-07-29T00:42:25;101137.00;;;20.70
12918;BMP180;6526;54.312;13.092;2023-07-29T00:44:51;101132.00;;;20.70
12918;BMP180;6526;54.312;13.092;2023-07-29T00:47:18;101136.00;;;20.60
12918;BMP180;6526;54.312;13.092;2023-07-29T00:49:45;101125.00;;;20.60
12918;BMP180;6526;54.312;13.092;2023-07-29T00:52:11;101119.00;;;20.60
12918;BMP180;6526;54.312;13.092;2023-07-29T00:54:39;101121.00;;;20.60
12918;BMP180;6526;54.312;13.092;2023-07-29T00:57:06;101110.00;;;20.60
12918;BMP180;6526;54.312;13.092;2023-07-29T00:59:35;101109.00;;;20.60
12918;BMP180;6526;54.312;13.092;2023-07-29T01:02:02;101109.00;;;20.60
12918;BMP180;6526;54.312;13.092;2023-07-29T01:04:28;101096.00;;;20.60
12918;BMP180;6526;54.312;13.092;2023-07-29T01:12:22;101099.00;;;20.60
12918;BMP180;6526;54.312;13.092;2023-07-29T01:17:40;101095.00;;;20.60
12918;BMP180;6526;54.312;13.092;2023-07-29T01:20:09;101113.00;;;20.60
12918;BMP180;6526;54.312;13.092;2023-07-29T01:22:37;101101.00;;;20.60
12918;BMP180;6526;54.312;13.092;2023-07-29T01:25:05;101099.00;;;20.60
12918;BMP180;6526;54.312;13.092;2023-07-29T01:27:32;101085.00;;;20.60
12918;BMP180;6526;54.312;13.092;2023-07-29T01:29:58;101102.00;;;20.60
12918;BMP180;6526;54.312;13.092;2023-07-29T01:32:45;101091.00;;;20.60
12918;BMP180;6526;54.312;13.092;2023-07-29T01:35:24;101090.00;;;20.50
12918;BMP180;6526;54.312;13.092;2023-07-29T01:38:09;101102.00;;;20.60
12918;BMP180;6526;54.312;13.092;2023-07-29T01:40:38;101102.00;;;20.60
12918;BMP180;6526;54.312;13.092;2023-07-29T01:43:05;101094.00;;;20.60
12918;BMP180;6526;54.312;13.092;2023-07-29T01:45:33;101101.00;;;20.50
12918;BMP180;6526;54.312;13.092;2023-07-29T01:48:04;101091.00;;;20.50
12918;BMP180;6526;54.312;13.092;2023-07-29T01:50:30;101087.00;;;20.50
12918;BMP180;6526;54.312;13.092;2023-07-29T01:52:58;101090.00;;;20.40
12918;BMP180;6526;54.312;13.092;2023-07-29T01:55:24;101085.00;;;20.40
12918;BMP180;6526;54.312;13.092;2023-07-29T01:57:50;101080.00;;;20.50
12918;BMP180;6526;54.312;13.092;2023-07-29T02:00:18;101089.00;;;20.50
12918;BMP180;6526;54.312;13.092;2023-07-29T02:02:44;101087.00;;;20.50
12918;BMP180;6526;54.312;13.092;2023-07-29T02:05:11;101089.00;;;20.40
12918;BMP180;6526;54.312;13.092;2023-07-29T02:07:37;101081.00;;;20.40
12918;BMP180;6526;54.312;13.092;2023-07-29T02:10:03;101072.00;;;20.30
12918;BMP180;6526;54.312;13.092;2023-07-29T02:12:29;101072.00;;;20.30
12918;BMP180;6526;54.312;13.092;2023-07-29T02:14:55;101069.00;;;20.40
12918;BMP180;6526;54.312;13.092;2023-07-29T02:17:21;101075.00;;;20.50
12918;BMP180;6526;54.312;13.092;2023-07-29T02:19:47;101065.00;;;20.50
12918;BMP180;6526;54.312;13.092;2023-07-29T02:22:15;101075.00;;;20.50
12918;BMP180;6526;54.312;13.092;2023-07-29T02:24:42;101069.00;;;20.50
12918;BMP180;6526;54.312;13.092;2023-07-29T02:27:08;101072.00;;;20.60
12918;BMP180;6526;54.312;13.092;2023-07-29T02:29:34;101068.00;;;20.50
12918;BMP180;6526;54.312;13.092;2023-07-29T02:32:00;101072.00;;;20.50
12918;BMP180;6526;54.312;13.092;2023-07-29T02:34:26;101071.00;;;20.60
12918;BMP180;6526;54.312;13.092;2023-07-29T02:36:52;101076.00;;;20.60
12918;BMP180;6526;54.312;13.092;2023-07-29T02:39:18;101067.00;;;20.50
12918;BMP180;6526;54.312;13.092;2023-07-29T02:41:44;101076.00;;;20.60
12918;BMP180;6526;54.312;13.092;2023-07-29T02:44:10;101081.00;;;20.60
12918;BMP180;6526;54.312;13.092;2023-07-29T02:46:36;101069.00;;;20.60
12918;BMP180;6526;54.312;13.092;2023-07-29T02:49:03;101075.00;;;20.60
12918;BMP180;6526;54.312;13.092;2023-07-29T02:51:30;101067.00;;;20.60
12918;BMP180;6526;54.312;13.092;2023-07-29T02:53:56;101067.00;;;20.60
12918;BMP180;6526;54.312;13.092;2023-07-29T02:56:22;101065.00;;;20.60
12918;BMP180;6526;54.312;13.092;2023-07-29T02:58:48;101067.00;;;20.60
12918;BMP180;6526;54.312;13.092;2023-07-29T03:01:17;101072.00;;;20.60
12918;BMP180;6526;54.312;13.092;2023-07-29T03:03:43;101071.00;;;20.60
12918;BMP180;6526;54.312;13.092;2023-07-29T03:06:12;101079.00;;;20.70
12918;BMP180;6526;54.312;13.092;2023-07-29T03:08:38;101072.00;;;20.60
12918;BMP180;6526;54.312;13.092;2023-07-29T03:11:09;101074.00;;;20.50
12918;BMP180;6526;54.312;13.092;2023-07-29T03:13:36;101083.00;;;20.50
12918;BMP180;6526;54.312;13.092;2023-07-29T03:16:13;101072.00;;;20.40
12918;BMP180;6526;54.312;13.092;2023-07-29T03:18:40;101077.00;;;20.40
12918;BMP180;6526;54.312;13.092;2023-07-29T03:21:07;101081.00;;;20.40
12918;BMP180;6526;54.312;13.092;2023-07-29T03:23:34;101080.00;;;20.40
12918;BMP180;6526;54.312;13.092;2023-07-29T03:26:02;101081.00;;;20.40
12918;BMP180;6526;54.312;13.092;2023-07-29T03:28:31;101084.00;;;20.30
12918;BMP180;6526;54.312;13.092;2023-07-29T03:30:58;101086.00;;;20.30
12918;BMP180;6526;54.312;13.092;2023-07-29T03:33:25;101079.00;;;20.10
12918;BMP180;6526;54.312;13.092;2023-07-29T03:35:52;101082.00;;;20.10
12918;BMP180;6526;54.312;13.092;2023-07-29T03:38:18;101082.00;;;20.00
12918;BMP180;6526;54.312;13.092;2023-07-29T03:40:45;101085.00;;;19.90
12918;BMP180;6526;54.312;13.092;2023-07-29T03:43:11;101084.00;;;19.80
12918;BMP180;6526;54.312;13.092;2023-07-29T03:45:39;101080.00;;;19.80
12918;BMP180;6526;54.312;13.092;2023-07-29T03:48:06;101078.00;;;19.80
12918;BMP180;6526;54.312;13.092;2023-07-29T03:50:34;101082.00;;;19.70
12918;BMP180;6526;54.312;13.092;2023-07-29T03:53:01;101082.00;;;19.70
12918;BMP180;6526;54.312;13.092;2023-07-29T03:55:27;101076.00;;;19.70
12918;BMP180;6526;54.312;13.092;2023-07-29T03:57:56;101075.00;;;19.70
12918;BMP180;6526;54.312;13.092;2023-07-29T04:00:22;101061.00;;;19.70
12918;BMP180;6526;54.312;13.092;2023-07-29T04:02:48;101057.00;;;19.70
12918;BMP180;6526;54.312;13.092;2023-07-29T04:05:14;101060.00;;;19.70
12918;BMP180;6526;54.312;13.092;2023-07-29T04:07:41;101061.00;;;19.70
12918;BMP180;6526;54.312;13.092;2023-07-29T04:10:07;101054.00;;;19.80
12918;BMP180;6526;54.312;13.092;2023-07-29T04:12:33;101058.00;;;19.80
12918;BMP180;6526;54.312;13.092;2023-07-29T04:14:59;101061.00;;;19.80
12918;BMP180;6526;54.312;13.092;2023-07-29T04:17:25;101061.00;;;19.80
12918;BMP180;6526;54.312;13.092;2023-07-29T04:19:51;101063.00;;;19.90
12918;BMP180;6526;54.312;13.092;2023-07-29T04:22:17;101065.00;;;20.00
12918;BMP180;6526;54.312;13.092;2023-07-29T04:24:44;101056.00;;;20.00
12918;BMP180;6526;54.312;13.092;2023-07-29T04:27:09;101061.00;;;20.00
12918;BMP180;6526;54.312;13.092;2023-07-29T04:29:36;101054.00;;;20.00
12918;BMP180;6526;54.312;13.092;2023-07-29T04:32:03;101058.00;;;20.00
12918;BMP180;6526;54.312;13.092;2023-07-29T04:34:29;101058.00;;;20.00
12918;BMP180;6526;54.312;13.092;2023-07-29T04:36:55;101052.00;;;20.10
12918;BMP180;6526;54.312;13.092;2023-07-29T04:39:21;101052.00;;;20.10
12918;BMP180;6526;54.312;13.092;2023-07-29T04:41:47;101054.00;;;20.20
12918;BMP180;6526;54.312;13.092;2023-07-29T04:44:13;101055.00;;;20.20
12918;BMP180;6526;54.312;13.092;2023-07-29T04:46:39;101055.00;;;20.20
12918;BMP180;6526;54.312;13.092;2023-07-29T04:49:05;101056.00;;;20.20
12918;BMP180;6526;54.312;13.092;2023-07-29T04:51:32;101049.00;;;20.20
12918;BMP180;6526;54.312;13.092;2023-07-29T04:53:58;101047.00;;;20.30
12918;BMP180;6526;54.312;13.092;2023-07-29T04:56:25;101044.00;;;20.20
12918;BMP180;6526;54.312;13.092;2023-07-29T04:58:51;101044.00;;;20.30
12918;BMP180;6526;54.312;13.092;2023-07-29T05:01:18;101039.00;;;20.30
12918;BMP180;6526;54.312;13.092;2023-07-29T05:03:44;101038.00;;;20.40
12918;BMP180;6526;54.312;13.092;2023-07-29T05:06:10;101023.00;;;20.50
12918;BMP180;6526;54.312;13.092;2023-07-29T05:08:36;101026.00;;;20.50
12918;BMP180;6526;54.312;13.092;2023-07-29T05:11:02;101017.00;;;20.50
12918;BMP180;6526;54.312;13.092;2023-07-29T05:13:28;101027.00;;;20.50
12918;BMP180;6526;54.312;13.092;2023-07-29T05:15:54;101012.00;;;20.60
12918;BMP180;6526;54.312;13.092;2023-07-29T05:18:20;100948.00;;;20.60
12918;BMP180;6526;54.312;13.092;2023-07-29T05:20:47;101006.00;;;20.60
12918;BMP180;6526;54.312;13.092;2023-07-29T05:23:13;101003.00;;;20.70
12918;BMP180;6526;54.312;13.092;2023-07-29T05:25:39;101007.00;;;20.80
12918;BMP180;6526;54.312;13.092;2023-07-29T05:28:05;101002.00;;;20.80
12918;BMP180;6526;54.312;13.092;2023-07-29T05:30:33;101009.00;;;21.00
12918;BMP180;6526;54.312;13.092;2023-07-29T05:33:03;100996.00;;;21.10
12918;BMP180;6526;54.312;13.092;2023-07-29T05:35:30;101003.00;;;21.30
12918;BMP180;6526;54.312;13.092;2023-07-29T05:37:56;101011.00;;;21.40
12918;BMP180;6526;54.312;13.092;2023-07-29T05:40:22;101019.00;;;21.60
12918;BMP180;6526;54.312;13.092;2023-07-29T05:42:48;101014.00;;;21.70
12918;BMP180;6526;54.312;13.092;2023-07-29T05:45:14;101014.00;;;21.80
12918;BMP180;6526;54.312;13.092;2023-07-29T05:47:40;101022.00;;;21.90
12918;BMP180;6526;54.312;13.092;2023-07-29T05:50:07;101027.00;;;22.00
12918;BMP180;6526;54.312;13.092;2023-07-29T05:52:33;101013.00;;;22.10
12918;BMP180;6526;54.312;13.092;2023-07-29T05:55:00;101015.00;;;22.20
12918;BMP180;6526;54.312;13.092;2023-07-29T05:57:27;101013.00;;;22.20
12918;BMP180;6526;54.312;13.092;2023-07-29T05:59:54;101008.00;;;22.30
12918;BMP180;6526;54.312;13.092;2023-07-29T06:02:20;101013.00;;;22.30
12918;BMP180;6526;54.312;13.092;2023-07-29T06:04:46;101009.00;;;22.40
12918;BMP180;6526;54.312;13.092;2023-07-29T06:07:12;101009.00;;;22.50
12918;BMP180;6526;54.312;13.092;2023-07-29T06:09:38;100970.00;;;22.50
12918;BMP180;6526;54.312;13.092;2023-07-29T06:12:05;101012.00;;;22.60
12918;BMP180;6526;54.312;13.092;2023-07-29T06:14:31;101000.00;;;22.70
12918;BMP180;6526;54.312;13.092;2023-07-29T06:16:57;101009.00;;;22.80
12918;BMP180;6526;54.312;13.092;2023-07-29T06:19:23;101005.00;;;22.80
12918;BMP180;6526;54.312;13.092;2023-07-29T06:21:49;100991.00;;;22.80
12918;BMP180;6526;54.312;13.092;2023-07-29T06:24:15;100991.00;;;23.00
12918;BMP180;6526;54.312;13.092;2023-07-29T06:26:41;100985.00;;;23.10
12918;BMP180;6526;54.312;13.092;2023-07-29T06:29:07;100981.00;;;23.20
12918;BMP180;6526;54.312;13.092;2023-07-29T06:31:33;100986.00;;;23.30
12918;BMP180;6526;54.312;13.092;2023-07-29T06:33:59;100984.00;;;23.40
12918;BMP180;6526;54.312;13.092;2023-07-29T06:36:25;100985.00;;;23.40
12918;BMP180;6526;54.312;13.092;2023-07-29T06:38:51;100995.00;;;23.50
12918;BMP180;6526;54.312;13.092;2023-07-29T06:41:17;101002.00;;;23.60
12918;BMP180;6526;54.312;13.092;2023-07-29T06:43:43;100994.00;;;23.60
12918;BMP180;6526;54.312;13.092;2023-07-29T06:46:09;100985.00;;;23.70
12918;BMP180;6526;54.312;13.092;2023-07-29T06:48:35;100991.00;;;23.80
12918;BMP180;6526;54.312;13.092;2023-07-29T06:51:01;100981.00;;;23.90
12918;BMP180;6526;54.312;13.092;2023-07-29T06:53:28;100985.00;;;24.10
12918;BMP180;6526;54.312;13.092;2023-07-29T06:55:54;100978.00;;;24.20
12918;BMP180;6526;54.312;13.092;2023-07-29T06:58:20;100979.00;;;24.20
12918;BMP180;6526;54.312;13.092;2023-07-29T07:00:46;100982.00;;;24.50
12918;BMP180;6526;54.312;13.092;2023-07-29T07:03:12;100988.00;;;24.60
12918;BMP180;6526;54.312;13.092;2023-07-29T07:05:38;100980.00;;;24.70
12918;BMP180;6526;54.312;13.092;2023-07-29T07:08:04;100979.00;;;24.80
12918;BMP180;6526;54.312;13.092;2023-07-29T07:10:31;100982.00;;;24.80
12918;BMP180;6526;54.312;13.092;2023-07-29T07:12:57;100974.00;;;24.80
12918;BMP180;6526;54.312;13.092;2023-07-29T07:15:23;100980.00;;;24.90
12918;BMP180;6526;54.312;13.092;2023-07-29T07:17:50;100979.00;;;25.00
12918;BMP180;6526;54.312;13.092;2023-07-29T07:20:16;100978.00;;;25.00
12918;BMP180;6526;54.312;13.092;2023-07-29T07:22:42;100980.00;;;25.10
12918;BMP180;6526;54.312;13.092;2023-07-29T07:25:09;100971.00;;;25.10
12918;BMP180;6526;54.312;13.092;2023-07-29T07:27:36;100967.00;;;25.30
12918;BMP180;6526;54.312;13.092;2023-07-29T07:30:02;100971.00;;;25.40
12918;BMP180;6526;54.312;13.092;2023-07-29T07:32:28;100966.00;;;25.50
12918;BMP180;6526;54.312;13.092;2023-07-29T07:34:54;100961.00;;;25.70
12918;BMP180;6526;54.312;13.092;2023-07-29T07:37:20;100966.00;;;25.70
12918;BMP180;6526;54.312;13.092;2023-07-29T07:39:46;100960.00;;;25.80
12918;BMP180;6526;54.312;13.092;2023-07-29T07:42:12;100956.00;;;26.00
12918;BMP180;6526;54.312;13.092;2023-07-29T07:44:38;100966.00;;;26.00
12918;BMP180;6526;54.312;13.092;2023-07-29T07:47:04;100958.00;;;26.00
12918;BMP180;6526;54.312;13.092;2023-07-29T07:49:31;100959.00;;;26.00
12918;BMP180;6526;54.312;13.092;2023-07-29T07:51:58;100945.00;;;26.00
12918;BMP180;6526;54.312;13.092;2023-07-29T07:54:24;100944.00;;;26.00
12918;BMP180;6526;54.312;13.092;2023-07-29T07:56:50;100938.00;;;25.90
12918;BMP180;6526;54.312;13.092;2023-07-29T07:59:16;100942.00;;;26.00
12918;BMP180;6526;54.312;13.092;2023-07-29T08:01:42;100946.00;;;26.00
12918;BMP180;6526;54.312;13.092;2023-07-29T08:04:08;100938.00;;;26.00
12918;BMP180;6526;54.312;13.092;2023-07-29T08:06:34;100935.00;;;26.30
12918;BMP180;6526;54.312;13.092;2023-07-29T08:09:01;100946.00;;;26.30
12918;BMP180;6526;54.312;13.092;2023-07-29T08:11:27;100932.00;;;26.40
12918;BMP180;6526;54.312;13.092;2023-07-29T08:13:53;100932.00;;;26.50
12918;BMP180;6526;54.312;13.092;2023-07-29T08:16:19;100935.00;;;26.50
12918;BMP180;6526;54.312;13.092;2023-07-29T08:18:45;100928.00;;;26.50
12918;BMP180;6526;54.312;13.092;2023-07-29T08:21:11;100935.00;;;26.30
12918;BMP180;6526;54.312;13.092;2023-07-29T08:23:37;100927.00;;;26.20
12918;BMP180;6526;54.312;13.092;2023-07-29T08:26:05;100926.00;;;26.30
12918;BMP180;6526;54.312;13.092;2023-07-29T08:28:33;100936.00;;;26.40
12918;BMP180;6526;54.312;13.092;2023-07-29T08:31:00;100926.00;;;26.40
12918;BMP180;6526;54.312;13.092;2023-07-29T08:33:27;100915.00;;;26.50
12918;BMP180;6526;54.312;13.092;2023-07-29T08:35:53;100906.00;;;26.50
12918;BMP180;6526;54.312;13.092;2023-07-29T08:38:20;100915.00;;;26.50
12918;BMP180;6526;54.312;13.092;2023-07-29T08:40:56;100918.00;;;26.60
12918;BMP180;6526;54.312;13.092;2023-07-29T08:43:29;100920.00;;;26.60
12918;BMP180;6526;54.312;13.092;2023-07-29T08:45:58;100919.00;;;26.50
12918;BMP180;6526;54.312;13.092;2023-07-29T08:48:37;100917.00;;;26.70
12918;BMP180;6526;54.312;13.092;2023-07-29T08:51:05;100913.00;;;26.70
12918;BMP180;6526;54.312;13.092;2023-07-29T08:53:33;100916.00;;;26.70
12918;BMP180;6526;54.312;13.092;2023-07-29T08:56:00;100916.00;;;26.70
12918;BMP180;6526;54.312;13.092;2023-07-29T08:58:27;100907.00;;;26.90
12918;BMP180;6526;54.312;13.092;2023-07-29T09:00:53;100903.00;;;27.00
12918;BMP180;6526;54.312;13.092;2023-07-29T09:03:20;100917.00;;;27.00
12918;BMP180;6526;54.312;13.092;2023-07-29T09:05:47;100921.00;;;27.10
12918;BMP180;6526;54.312;13.092;2023-07-29T09:08:13;100930.00;;;27.00
12918;BMP180;6526;54.312;13.092;2023-07-29T09:10:39;100914.00;;;27.00
12918;BMP180;6526;54.312;13.092;2023-07-29T09:13:06;100903.00;;;26.90
12918;BMP180;6526;54.312;13.092;2023-07-29T09:15:35;100901.00;;;26.90
12918;BMP180;6526;54.312;13.092;2023-07-29T09:18:17;100904.00;;;26.90
12918;BMP180;6526;54.312;13.092;2023-07-29T09:20:46;100905.00;;;26.90
12918;BMP180;6526;54.312;13.092;2023-07-29T09:23:13;100893.00;;;27.00
12918;BMP180;6526;54.312;13.092;2023-07-29T09:25:39;100889.00;;;27.10
12918;BMP180;6526;54.312;13.092;2023-07-29T09:28:14;100886.00;;;27.30
12918;BMP180;6526;54.312;13.092;2023-07-29T09:30:41;100887.00;;;27.60
12918;BMP180;6526;54.312;13.092;2023-07-29T09:33:11;100892.00;;;27.70
12918;BMP180;6526;54.312;13.092;2023-07-29T09:35:38;100887.00;;;27.80
12918;BMP180;6526;54.312;13.092;2023-07-29T09:38:07;100870.00;;;27.90
12918;BMP180;6526;54.312;13.092;2023-07-29T09:40:38;100879.00;;;28.00
12918;BMP180;6526;54.312;13.092;2023-07-29T09:43:05;100882.00;;;28.00
12918;BMP180;6526;54.312;13.092;2023-07-29T09:45:34;100872.00;;;27.90
12918;BMP180;6526;54.312;13.092;2023-07-29T09:48:00;100873.00;;;27.90
12918;BMP180;6526;54.312;13.092;2023-07-29T09:50:27;100871.00;;;27.70
12918;BMP180;6526;54.312;13.092;2023-07-29T09:52:55;100854.00;;;27.70
12918;BMP180;6526;54.312;13.092;2023-07-29T09:55:25;100857.00;;;27.80
12918;BMP180;6526;54.312;13.092;2023-07-29T09:58:00;100850.00;;;27.80
12918;BMP180;6526;54.312;13.092;2023-07-29T10:00:29;100854.00;;;27.90
12918;BMP180;6526;54.312;13.092;2023-07-29T10:02:56;100856.00;;;28.00
12918;BMP180;6526;54.312;13.092;2023-07-29T10:05:25;100844.00;;;28.10
12918;BMP180;6526;54.312;13.092;2023-07-29T10:07:51;100853.00;;;28.00
12918;BMP180;6526;54.312;13.092;2023-07-29T10:10:17;100857.00;;;28.10
12918;BMP180;6526;54.312;13.092;2023-07-29T10:12:43;100849.00;;;28.30
12918;BMP180;6526;54.312;13.092;2023-07-29T10:15:10;100850.00;;;28.30
12918;BMP180;6526;54.312;13.092;2023-07-29T10:17:37;100854.00;;;28.50
12918;BMP180;6526;54.312;13.092;2023-07-29T10:20:05;100846.00;;;28.50
12918;BMP180;6526;54.312;13.092;2023-07-29T10:22:39;100848.00;;;28.50
12918;BMP180;6526;54.312;13.092;2023-07-29T10:25:10;100848.00;;;28.50
12918;BMP180;6526;54.312;13.092;2023-07-29T10:27:51;100843.00;;;28.50
12918;BMP180;6526;54.312;13.092;2023-07-29T10:30:18;100835.00;;;28.40
12918;BMP180;6526;54.312;13.092;2023-07-29T10:32:45;100845.00;;;28.40
12918;BMP180;6526;54.312;13.092;2023-07-29T10:35:13;100837.00;;;28.30
12918;BMP180;6526;54.312;13.092;2023-07-29T10:37:39;100834.00;;;28.40
12918;BMP180;6526;54.312;13.092;2023-07-29T10:40:10;100836.00;;;28.50
12918;BMP180;6526;54.312;13.092;2023-07-29T10:42:38;100824.00;;;28.40
12918;BMP180;6526;54.312;13.092;2023-07-29T10:45:20;100833.00;;;28.40
12918;BMP180;6526;54.312;13.092;2023-07-29T10:47:48;100827.00;;;28.30
12918;BMP180;6526;54.312;13.092;2023-07-29T10:50:21;100820.00;;;28.30
12918;BMP180;6526;54.312;13.092;2023-07-29T10:52:52;100808.00;;;28.40
12918;BMP180;6526;54.312;13.092;2023-07-29T10:55:30;100801.00;;;28.30
12918;BMP180;6526;54.312;13.092;2023-07-29T10:58:06;100812.00;;;28.50
12918;BMP180;6526;54.312;13.092;2023-07-29T11:00:32;100797.00;;;28.60
12918;BMP180;6526;54.312;13.092;2023-07-29T11:03:08;100805.00;;;28.70
12918;BMP180;6526;54.312;13.092;2023-07-29T11:05:51;100805.00;;;28.70
12918;BMP180;6526;54.312;13.092;2023-07-29T11:08:30;100800.00;;;28.70
12918;BMP180;6526;54.312;13.092;2023-07-29T11:11:06;100807.00;;;28.80
12918;BMP180;6526;54.312;13.092;2023-07-29T11:13:34;100791.00;;;28.80
12918;BMP180;6526;54.312;13.092;2023-07-29T11:16:00;100791.00;;;28.80
12918;BMP180;6526;54.312;13.092;2023-07-29T11:18:37;100797.00;;;28.80
12918;BMP180;6526;54.312;13.092;2023-07-29T11:21:04;100796.00;;;28.60
12918;BMP180;6526;54.312;13.092;2023-07-29T11:23:35;100789.00;;;28.50
12918;BMP180;6526;54.312;13.092;2023-07-29T11:26:02;100802.00;;;28.40
12918;BMP180;6526;54.312;13.092;2023-07-29T11:28:29;100798.00;;;28.40
12918;BMP180;6526;54.312;13.092;2023-07-29T11:30:58;100795.00;;;28.40
12918;BMP180;6526;54.312;13.092;2023-07-29T11:33:26;100800.00;;;28.40
12918;BMP180;6526;54.312;13.092;2023-07-29T11:35:54;100800.00;;;28.40
12918;BMP180;6526;54.312;13.092;2023-07-29T11:38:21;100806.00;;;28.50
12918;BMP180;6526;54.312;13.092;2023-07-29T11:41:00;100793.00;;;28.50
12918;BMP180;6526;54.312;13.092;2023-07-29T11:43:29;100797.00;;;28.50
12918;BMP180;6526;54.312;13.092;2023-07-29T11:45:55;100801.00;;;28.50
12918;BMP180;6526;54.312;13.092;2023-07-29T11:48:30;100805.00;;;28.60
12918;BMP180;6526;54.312;13.092;2023-07-29T11:50:57;100800.00;;;28.60
12918;BMP180;6526;54.312;13.092;2023-07-29T11:53:27;100816.00;;;28.60
12918;BMP180;6526;54.312;13.092;2023-07-29T11:55:54;100803.00;;;28.60
12918;BMP180;6526;54.312;13.092;2023-07-29T11:58:21;100801.00;;;28.60
12918;BMP180;6526;54.312;13.092;2023-07-29T12:00:47;100814.00;;;28.50
12918;BMP180;6526;54.312;13.092;2023-07-29T12:03:14;100805.00;;;28.50
12918;BMP180;6526;54.312;13.092;2023-07-29T12:05:43;100809.00;;;28.50
12918;BMP180;6526;54.312;13.092;2023-07-29T12:08:09;100818.00;;;28.50
12918;BMP180;6526;54.312;13.092;2023-07-29T12:10:36;100821.00;;;28.60
12918;BMP180;6526;54.312;13.092;2023-07-29T12:13:03;100819.00;;;28.60
12918;BMP180;6526;54.312;13.092;2023-07-29T12:15:29;100828.00;;;28.60
12918;BMP180;6526;54.312;13.092;2023-07-29T12:17:59;100830.00;;;28.70
12918;BMP180;6526;54.312;13.092;2023-07-29T12:20:29;100819.00;;;28.70
12918;BMP180;6526;54.312;13.092;2023-07-29T12:22:56;100817.00;;;28.60
12918;BMP180;6526;54.312;13.092;2023-07-29T12:25:23;100815.00;;;28.70
12918;BMP180;6526;54.312;13.092;2023-07-29T12:27:49;100823.00;;;28.70
12918;BMP180;6526;54.312;13.092;2023-07-29T12:30:15;100831.00;;;28.70
12918;BMP180;6526;54.312;13.092;2023-07-29T12:32:47;100820.00;;;28.60
12918;BMP180;6526;54.312;13.092;2023-07-29T12:35:14;100826.00;;;28.50
12918;BMP180;6526;54.312;13.092;2023-07-29T12:37:40;100820.00;;;28.50
12918;BMP180;6526;54.312;13.092;2023-07-29T12:40:23;100810.00;;;28.40
12918;BMP180;6526;54.312;13.092;2023-07-29T12:42:49;100813.00;;;28.40
12918;BMP180;6526;54.312;13.092;2023-07-29T12:45:17;100819.00;;;28.40
12918;BMP180;6526;54.312;13.092;2023-07-29T12:47:43;100818.00;;;28.30
12918;BMP180;6526;54.312;13.092;2023-07-29T12:50:10;100826.00;;;28.20
12918;BMP180;6526;54.312;13.092;2023-07-29T12:52:36;100838.00;;;28.10
12918;BMP180;6526;54.312;13.092;2023-07-29T12:55:02;100837.00;;;28.10
12918;BMP180;6526;54.312;13.092;2023-07-29T12:57:28;100827.00;;;28.10
12918;BMP180;6526;54.312;13.092;2023-07-29T12:59:54;100822.00;;;28.30
12918;BMP180;6526;54.312;13.092;2023-07-29T13:02:20;100820.00;;;28.30
12918;BMP180;6526;54.312;13.092;2023-07-29T13:04:46;100811.00;;;28.30
12918;BMP180;6526;54.312;13.092;2023-07-29T13:07:12;100805.00;;;28.30
12918;BMP180;6526;54.312;13.092;2023-07-29T13:09:38;100801.00;;;28.40
12918;BMP180;6526;54.312;13.092;2023-07-29T13:12:04;100805.00;;;28.30
12918;BMP180;6526;54.312;13.092;2023-07-29T13:14:30;100812.00;;;28.30
12918;BMP180;6526;54.312;13.092;2023-07-29T13:16:56;100866.00;;;28.10
12918;BMP180;6526;54.312;13.092;2023-07-29T13:19:22;100893.00;;;28.00
12918;BMP180;6526;54.312;13.092;2023-07-29T13:21:48;100927.00;;;27.40
12918;BMP180;6526;54.312;13.092;2023-07-29T13:24:14;100949.00;;;26.40
12918;BMP180;6526;54.312;13.092;2023-07-29T13:26:40;100955.00;;;25.50
12918;BMP180;6526;54.312;13.092;2023-07-29T13:29:08;100957.00;;;24.80
12918;BMP180;6526;54.312;13.092;2023-07-29T13:31:34;100918.00;;;24.40
12918;BMP180;6526;54.312;13.092;2023-07-29T13:34:00;100932.00;;;24.00
12918;BMP180;6526;54.312;13.092;2023-07-29T13:36:26;100943.00;;;23.80
12918;BMP180;6526;54.312;13.092;2023-07-29T13:38:52;100953.00;;;23.80
12918;BMP180;6526;54.312;13.092;2023-07-29T13:41:18;100945.00;;;23.70
12918;BMP180;6526;54.312;13.092;2023-07-29T13:43:44;100944.00;;;23.60
12918;BMP180;6526;54.312;13.092;2023-07-29T13:46:10;100937.00;;;23.60
12918;BMP180;6526;54.312;13.092;2023-07-29T13:48:36;100941.00;;;23.50
12918;BMP180;6526;54.312;13.092;2023-07-29T13:51:02;100946.00;;;23.30
12918;BMP180;6526;54.312;13.092;2023-07-29T13:53:28;100943.00;;;23.00
12918;BMP180;6526;54.312;13.092;2023-07-29T13:55:54;100930.00;;;22.80
12918;BMP180;6526;54.312;13.092;2023-07-29T13:58:20;100910.00;;;22.50
12918;BMP180;6526;54.312;13.092;2023-07-29T14:00:46;100918.00;;;22.50
12918;BMP180;6526;54.312;13.092;2023-07-29T14:03:12;100930.00;;;22.30
12918;BMP180;6526;54.312;13.092;2023-07-29T14:05:38;100915.00;;;22.30